Time;durP1;ratioP1;P1;durP2;ratioP2;P2;SDS_P1;SDS_P2;PMS_P1;PMS_P2;Temp;Humidity;BMP_temperature;BMP_pressure;BME280_temperature;BME280_humidity;BME280_pressure;Samples;Min_cycle;Max_cycle;Signal;HPM_P1;HPM_P2
2022/04/09 00:02:22;;;;;;;7.70;5.50;;;2.60;99.90;;;;;;5027915;28;20197;-72
2022/04/09 00:04:49;;;;;;;9.53;6.17;;;3.10;99.90;;;;;;5010839;28;20289;-74
2022/04/09 00:07:14;;;;;;;9.63;6.20;;;3.10;99.90;;;;;;5028472;28;20300;-74
2022/04/09 00:09:40;;;;;;;12.83;7.70;;;2.60;99.90;;;;;;5028602;28;20984;-74
2022/04/09 00:12:06;;;;;;;13.40;7.23;;;3.00;99.90;;;;;;5024529;28;20220;-71
2022/04/09 00:14:31;;;;;;;12.63;7.47;;;2.50;99.90;;;;;;5026479;28;20212;-72
2022/04/09 00:16:57;;;;;;;11.60;7.60;;;2.90;99.90;;;;;;5036377;28;20164;-72
2022/04/09 00:19:23;;;;;;;14.10;7.03;;;2.60;99.90;;;;;;5017626;28;20249;-72
2022/04/09 00:21:48;;;;;;;13.67;7.37;;;3.00;99.90;;;;;;5028042;28;20459;-74
2022/04/09 00:24:14;;;;;;;10.87;7.07;;;3.10;99.90;;;;;;5027719;28;20198;-73
2022/04/09 00:26:40;;;;;;;12.07;6.67;;;2.60;99.90;;;;;;5028636;28;20652;-74
2022/04/09 00:29:06;;;;;;;11.53;6.87;;;3.00;99.90;;;;;;5039524;28;20213;-73
2022/04/09 00:31:32;;;;;;;12.73;7.40;;;2.40;99.90;;;;;;5028328;28;20459;-74
2022/04/09 00:33:58;;;;;;;10.77;7.20;;;2.50;99.90;;;;;;5027453;28;20494;-74
2022/04/09 00:36:24;;;;;;;12.33;7.63;;;2.50;99.90;;;;;;5027718;28;20792;-73
2022/04/09 00:38:50;;;;;;;12.43;7.73;;;2.90;99.90;;;;;;5027514;28;20420;-74
2022/04/09 00:41:15;;;;;;;11.07;6.67;;;2.90;99.90;;;;;;5021975;28;20281;-74
2022/04/09 00:43:42;;;;;;;16.80;7.80;;;2.50;99.90;;;;;;5027203;28;20197;-74
2022/04/09 00:46:11;;;;;;;16.77;8.33;;;2.80;99.90;;;;;;5027449;28;20300;-74
2022/04/09 00:48:37;;;;;;;12.90;7.37;;;2.50;99.90;;;;;;5027675;28;20465;-74
2022/04/09 00:51:03;;;;;;;15.03;8.60;;;2.50;99.90;;;;;;5027529;28;20416;-73
2022/04/09 00:53:39;;;;;;;15.33;8.40;;;2.60;99.90;;;;;;5027553;28;20419;-74
2022/04/09 00:56:15;;;;;;;16.50;8.70;;;2.90;99.90;;;;;;5028201;28;20533;-74
2022/04/09 00:58:48;;;;;;;14.50;8.40;;;2.50;99.90;;;;;;5029900;28;20447;-74
2022/04/09 01:01:15;;;;;;;14.83;8.50;;;2.50;99.90;;;;;;5026725;28;20475;-73
2022/04/09 01:03:40;;;;;;;12.97;7.73;;;2.60;99.90;;;;;;5009148;28;20427;-74
2022/04/09 01:06:08;;;;;;;15.40;9.03;;;3.10;99.90;;;;;;5024659;28;20978;-74
2022/04/09 01:08:34;;;;;;;15.73;8.17;;;3.10;99.90;;;;;;5010350;28;20677;-74
2022/04/09 01:10:59;;;;;;;14.93;7.90;;;2.50;99.90;;;;;;5008600;28;20411;-73
2022/04/09 01:13:25;;;;;;;14.27;8.00;;;2.90;99.90;;;;;;5027224;28;20184;-74
2022/04/09 01:15:51;;;;;;;20.50;8.70;;;2.50;99.90;;;;;;5026804;28;20209;-74
2022/04/09 01:18:18;;;;;;;12.70;8.37;;;2.90;99.90;;;;;;5025692;28;20867;-74
2022/04/09 01:20:43;;;;;;;13.50;8.60;;;3.00;99.90;;;;;;5027238;28;20425;-74
2022/04/09 01:23:09;;;;;;;11.63;7.50;;;2.60;99.90;;;;;;5026421;28;20435;-74
2022/04/09 01:25:37;;;;;;;15.77;8.80;;;3.00;99.90;;;;;;5023557;28;20233;-75
2022/04/09 01:28:03;;;;;;;19.90;9.27;;;3.10;99.90;;;;;;5039670;28;20211;-74
2022/04/09 01:30:29;;;;;;;14.10;8.60;;;2.60;99.90;;;;;;5026618;28;20927;-74
2022/04/09 01:32:55;;;;;;;15.07;8.90;;;2.60;99.90;;;;;;5026588;28;20476;-73
2022/04/09 01:35:20;;;;;;;15.63;9.13;;;2.60;99.90;;;;;;5026503;28;20200;-73
2022/04/09 01:37:46;;;;;;;15.90;9.07;;;3.00;99.90;;;;;;5026590;28;20256;-73
2022/04/09 01:40:12;;;;;;;15.90;9.47;;;2.60;99.90;;;;;;5026494;28;20258;-73
2022/04/09 01:42:37;;;;;;;16.43;9.07;;;2.60;99.90;;;;;;5026114;28;20185;-72
2022/04/09 01:45:08;;;;;;;14.07;8.37;;;3.00;99.90;;;;;;5026856;28;20239;-73
2022/04/09 01:47:35;;;;;;;16.47;8.57;;;2.70;99.90;;;;;;5028266;28;20205;-73
2022/04/09 01:50:01;;;;;;;15.47;9.10;;;3.00;99.90;;;;;;5028807;28;20486;-72
2022/04/09 01:52:26;;;;;;;13.93;7.73;;;2.60;99.90;;;;;;5024850;28;20454;-73
2022/04/09 01:54:52;;;;;;;14.40;8.40;;;3.10;99.90;;;;;;5026383;28;20348;-73
2022/04/09 01:57:17;;;;;;;19.50;8.80;;;3.00;99.90;;;;;;5029954;28;20172;-73
2022/04/09 01:59:44;;;;;;;15.40;8.53;;;2.60;99.90;;;;;;5027095;28;20185;-73
2022/04/09 02:02:10;;;;;;;19.30;9.27;;;2.80;99.90;;;;;;5025704;28;20472;-73
2022/04/09 02:04:35;;;;;;;14.73;9.10;;;2.90;99.90;;;;;;5026066;28;20425;-73
2022/04/09 02:07:01;;;;;;;13.07;8.33;;;3.10;99.90;;;;;;5026284;28;20432;-73
2022/04/09 02:09:26;;;;;;;13.30;8.20;;;2.80;99.90;;;;;;5026370;28;20213;-73
2022/04/09 02:11:52;;;;;;;15.73;8.60;;;3.10;99.90;;;;;;5025818;28;20209;-73
2022/04/09 02:14:18;;;;;;;19.27;8.80;;;2.70;99.90;;;;;;5025889;28;20185;-72
2022/04/09 02:16:44;;;;;;;17.50;9.80;;;2.90;99.90;;;;;;5026646;28;20204;-73
2022/04/09 02:19:10;;;;;;;18.20;9.47;;;2.70;99.90;;;;;;5021366;28;20177;-73
2022/04/09 02:21:36;;;;;;;19.27;9.80;;;3.10;99.90;;;;;;5022924;28;20794;-72
2022/04/09 02:24:02;;;;;;;15.70;8.57;;;2.80;99.90;;;;;;5026022;28;20505;-73
2022/04/09 02:26:27;;;;;;;17.20;9.50;;;2.70;99.90;;;;;;5007807;28;20240;-73
2022/04/09 02:28:53;;;;;;;16.93;9.87;;;3.10;99.90;;;;;;5028052;28;20212;-73
2022/04/09 02:31:20;;;;;;;17.40;8.60;;;2.70;99.90;;;;;;5030924;28;20287;-71
2022/04/09 02:33:46;;;;;;;18.97;8.30;;;3.10;99.90;;;;;;5010692;28;20641;-72
2022/04/09 02:36:12;;;;;;;15.07;8.37;;;2.70;99.90;;;;;;5028301;28;20574;-73
2022/04/09 02:38:39;;;;;;;14.43;7.80;;;2.60;99.90;;;;;;5036218;28;20449;-73
2022/04/09 02:41:06;;;;;;;12.40;6.93;;;2.60;99.90;;;;;;5029892;28;20518;-73
2022/04/09 02:43:32;;;;;;;10.43;6.97;;;2.70;99.90;;;;;;5041116;28;20414;-73
2022/04/09 02:45:57;;;;;;;11.80;6.90;;;3.00;99.90;;;;;;5025794;28;20993;-73
2022/04/09 02:48:23;;;;;;;7.17;5.43;;;3.00;99.90;;;;;;5025708;28;20209;-73
2022/04/09 02:50:49;;;;;;;8.90;5.90;;;2.50;99.90;;;;;;5025827;28;20192;-73
2022/04/09 02:53:14;;;;;;;7.50;5.40;;;2.60;99.90;;;;;;5025832;28;20177;-72
2022/04/09 02:55:40;;;;;;;8.27;5.00;;;3.00;99.90;;;;;;5026236;28;20204;-72
2022/04/09 02:58:06;;;;;;;10.23;5.43;;;2.60;99.90;;;;;;5030349;28;20181;-73
2022/04/09 03:00:32;;;;;;;9.97;4.80;;;3.00;99.90;;;;;;5025766;28;20485;-72
2022/04/09 03:02:57;;;;;;;5.90;4.17;;;2.30;99.90;;;;;;5026440;28;20184;-73
2022/04/09 03:05:23;;;;;;;8.50;4.60;;;2.60;99.90;;;;;;5026862;28;20288;-73
2022/04/09 03:07:49;;;;;;;6.00;4.57;;;2.50;99.90;;;;;;5029323;28;20181;-73
2022/04/09 03:10:14;;;;;;;6.40;3.40;;;3.00;99.90;;;;;;5029409;28;20216;-73
2022/04/09 03:12:46;;;;;;;6.03;4.50;;;2.80;99.90;;;;;;5010860;28;20184;-73
2022/04/09 03:15:13;;;;;;;6.40;4.23;;;2.40;99.90;;;;;;5028909;28;20371;-73
2022/04/09 03:17:38;;;;;;;6.03;4.70;;;2.30;99.90;;;;;;5028723;28;20457;-73
2022/04/09 03:20:05;;;;;;;5.83;3.90;;;2.70;99.90;;;;;;5027866;28;20859;-73
2022/04/09 03:22:31;;;;;;;7.27;4.73;;;2.30;99.90;;;;;;5027417;28;20464;-73
2022/04/09 03:24:57;;;;;;;5.70;4.03;;;3.20;99.90;;;;;;5028900;28;20545;-73
2022/04/09 03:27:24;;;;;;;7.10;4.50;;;2.90;99.90;;;;;;5033501;28;20239;-72
2022/04/09 03:29:49;;;;;;;6.67;4.37;;;3.00;99.90;;;;;;5028328;28;21029;-73
2022/04/09 03:32:15;;;;;;;6.80;4.43;;;2.90;99.90;;;;;;5040641;28;20442;-72
2022/04/09 03:34:41;;;;;;;6.60;4.67;;;3.00;99.90;;;;;;5031729;28;20262;-73
2022/04/09 03:37:06;;;;;;;8.00;4.77;;;2.70;99.90;;;;;;5011060;28;20264;-74
2022/04/09 03:39:32;;;;;;;6.17;4.20;;;2.70;99.90;;;;;;5028310;28;20189;-73
2022/04/09 03:41:57;;;;;;;6.83;4.30;;;3.20;99.90;;;;;;5028201;28;20176;-74
2022/04/09 03:44:23;;;;;;;6.43;4.30;;;2.70;99.90;;;;;;5027904;28;20287;-72
2022/04/09 03:46:48;;;;;;;8.37;4.90;;;2.70;99.90;;;;;;5028942;28;20259;-73
2022/04/09 03:49:15;;;;;;;7.17;4.03;;;3.10;99.90;;;;;;5028065;28;20209;-73
2022/04/09 03:51:41;;;;;;;6.60;4.67;;;2.60;99.90;;;;;;5028801;28;20173;-73
2022/04/09 03:54:06;;;;;;;7.60;4.50;;;3.20;99.90;;;;;;5028339;28;20418;-73
2022/04/09 03:56:32;;;;;;;6.50;4.77;;;3.10;99.90;;;;;;5012353;28;20259;-73
2022/04/09 03:58:57;;;;;;;9.23;4.73;;;2.60;99.90;;;;;;5037419;28;20181;-74
2022/04/09 04:01:24;;;;;;;11.60;4.70;;;2.60;99.90;;;;;;5027676;28;20191;-73
2022/04/09 04:03:51;;;;;;;7.10;4.80;;;2.40;99.90;;;;;;5028278;28;20179;-73
2022/04/09 04:06:17;;;;;;;11.30;5.43;;;2.70;99.90;;;;;;5028254;28;20537;-73
2022/04/09 04:08:42;;;;;;;8.30;5.07;;;2.20;99.90;;;;;;5028622;28;20513;-73
2022/04/09 04:11:08;;;;;;;8.70;5.10;;;2.20;99.90;;;;;;5027761;28;20212;-73
2022/04/09 04:13:38;;;;;;;11.07;4.80;;;2.50;99.90;;;;;;5027952;28;20214;-73
2022/04/09 04:16:04;;;;;;;9.03;5.80;;;2.10;99.90;;;;;;5026828;28;20271;-73
2022/04/09 04:18:29;;;;;;;7.43;5.47;;;2.10;99.90;;;;;;5028089;28;20459;-73
2022/04/09 04:20:55;;;;;;;11.67;5.80;;;2.50;99.90;;;;;;5026288;28;20866;-73
2022/04/09 04:23:20;;;;;;;8.27;5.67;;;2.20;99.90;;;;;;5028151;28;20181;-73
2022/04/09 04:25:46;;;;;;;9.53;6.07;;;2.60;99.90;;;;;;5010430;28;20287;-73
2022/04/09 04:28:11;;;;;;;10.83;6.17;;;2.50;99.90;;;;;;5032916;28;20246;-72
2022/04/09 04:30:37;;;;;;;10.13;6.57;;;2.60;99.90;;;;;;5027453;28;20651;-73
2022/04/09 04:33:02;;;;;;;10.77;6.60;;;3.10;99.90;;;;;;5008851;28;20263;-73
2022/04/09 04:35:28;;;;;;;8.27;5.77;;;2.60;99.90;;;;;;5027773;28;20204;-72
2022/04/09 04:37:54;;;;;;;9.30;5.80;;;2.60;99.90;;;;;;5026976;28;20275;-73
2022/04/09 04:40:19;;;;;;;10.73;5.83;;;3.00;99.90;;;;;;5009909;28;20180;-73
2022/04/09 04:42:45;;;;;;;9.50;6.73;;;2.70;99.90;;;;;;5026698;28;20424;-73
2022/04/09 04:45:11;;;;;;;12.90;6.57;;;2.70;99.90;;;;;;5027198;28;20555;-73
2022/04/09 04:47:45;;;;;;;13.20;6.70;;;2.90;99.90;;;;;;5027170;28;20424;-73
2022/04/09 04:50:11;;;;;;;11.67;7.60;;;3.20;99.90;;;;;;5027595;28;20215;-73
2022/04/09 04:52:37;;;;;;;11.03;6.73;;;3.00;99.90;;;;;;5026890;28;20424;-74
2022/04/09 04:55:03;;;;;;;13.07;6.87;;;2.80;99.90;;;;;;5027346;28;20450;-73
2022/04/09 04:57:30;;;;;;;13.00;6.97;;;2.80;99.90;;;;;;5034034;28;20186;-73
2022/04/09 04:59:58;;;;;;;10.93;7.00;;;3.20;99.90;;;;;;5027411;28;20271;-73
2022/04/09 05:02:23;;;;;;;11.93;7.90;;;2.90;99.90;;;;;;5026339;28;20883;-73
2022/04/09 05:04:49;;;;;;;10.87;6.93;;;3.00;99.90;;;;;;5026071;28;20470;-73
2022/04/09 05:07:14;;;;;;;17.33;7.37;;;3.40;99.90;;;;;;5023485;28;20268;-73
2022/04/09 05:09:41;;;;;;;9.60;6.80;;;3.20;99.90;;;;;;5027894;28;20224;-73
2022/04/09 05:12:07;;;;;;;14.80;8.30;;;3.00;99.90;;;;;;5041251;28;20184;-73
2022/04/09 05:14:32;;;;;;;13.27;8.10;;;2.60;99.90;;;;;;5026237;28;20443;-73
2022/04/09 05:16:59;;;;;;;25.60;12.23;;;2.60;99.90;;;;;;5026762;28;20785;-73
2022/04/09 05:19:25;;;;;;;20.03;11.67;;;2.60;99.90;;;;;;5026062;28;20574;-73
2022/04/09 05:21:50;;;;;;;16.00;9.07;;;2.40;99.90;;;;;;5031141;28;20489;-73
2022/04/09 05:24:16;;;;;;;21.47;9.20;;;2.40;99.90;;;;;;5026328;28;20555;-73
2022/04/09 05:26:41;;;;;;;18.10;9.47;;;2.60;99.90;;;;;;5010347;28;20302;-73
2022/04/09 05:29:07;;;;;;;16.07;9.00;;;2.80;99.90;;;;;;5035233;28;20283;-72
2022/04/09 05:31:32;;;;;;;14.80;9.30;;;3.10;99.90;;;;;;5022124;28;20267;-73
2022/04/09 05:33:58;;;;;;;19.03;10.37;;;3.10;99.90;;;;;;5026015;28;20180;-72
2022/04/09 05:36:23;;;;;;;15.50;9.57;;;3.30;99.90;;;;;;5024145;28;20205;-74
2022/04/09 05:38:49;;;;;;;19.43;10.10;;;3.30;99.90;;;;;;5026803;28;20181;-73
2022/04/09 05:41:15;;;;;;;19.40;10.67;;;3.30;99.90;;;;;;5026056;28;20188;-73
2022/04/09 05:43:40;;;;;;;20.40;10.53;;;3.30;99.90;;;;;;5025924;28;20791;-72
2022/04/09 05:46:06;;;;;;;15.50;10.37;;;2.80;99.90;;;;;;5008600;28;20208;-73
2022/04/09 05:48:31;;;;;;;20.50;10.80;;;2.90;99.90;;;;;;5026195;28;20665;-73
2022/04/09 05:50:57;;;;;;;21.60;12.63;;;2.90;99.90;;;;;;5008382;28;20740;-72
2022/04/09 05:53:23;;;;;;;17.10;11.80;;;3.10;99.90;;;;;;5025946;28;20181;-73
2022/04/09 05:55:48;;;;;;;18.87;12.17;;;3.00;99.90;;;;;;5027438;28;20658;-74
2022/04/09 05:58:14;;;;;;;20.60;11.83;;;3.10;99.90;;;;;;5026855;28;20230;-72
2022/04/09 06:00:40;;;;;;;23.40;16.17;;;3.50;99.90;;;;;;5026119;28;20169;-72
2022/04/09 06:03:05;;;;;;;24.47;14.17;;;3.20;99.90;;;;;;5024426;28;20435;-73
2022/04/09 06:05:31;;;;;;;21.00;13.63;;;3.20;99.90;;;;;;5022547;28;20698;-72
2022/04/09 06:07:56;;;;;;;19.40;11.97;;;3.70;99.90;;;;;;5030242;28;20673;-73
2022/04/09 06:10:22;;;;;;;20.13;11.53;;;3.20;99.90;;;;;;5027526;28;20201;-72
2022/04/09 06:12:47;;;;;;;19.97;12.20;;;3.60;99.90;;;;;;5026305;28;20219;-74
2022/04/09 06:15:13;;;;;;;19.40;11.73;;;3.20;99.90;;;;;;5027177;28;20255;-74
2022/04/09 06:17:39;;;;;;;24.23;16.97;;;3.80;99.90;;;;;;5026989;28;20180;-73
2022/04/09 06:20:06;;;;;;;27.43;14.67;;;3.80;99.90;;;;;;5026554;28;20169;-73
2022/04/09 06:22:32;;;;;;;23.60;13.40;;;3.50;99.90;;;;;;5026347;28;20431;-73
2022/04/09 06:24:58;;;;;;;19.60;12.00;;;3.70;99.90;;;;;;5025846;28;20460;-73
2022/04/09 06:27:24;;;;;;;24.30;13.50;;;3.80;99.90;;;;;;5035467;28;20474;-74
2022/04/09 06:29:49;;;;;;;18.73;12.60;;;4.10;99.90;;;;;;5034790;28;20457;-73
2022/04/09 06:32:15;;;;;;;19.07;12.80;;;4.20;99.90;;;;;;5026670;28;20197;-74
2022/04/09 06:34:41;;;;;;;21.30;12.93;;;4.20;99.90;;;;;;5027374;28;20443;-74
2022/04/09 06:37:06;;;;;;;20.50;12.80;;;4.20;99.90;;;;;;5027239;28;20556;-74
2022/04/09 06:39:33;;;;;;;18.53;11.80;;;4.50;99.90;;;;;;5031893;28;20377;-74
2022/04/09 06:41:58;;;;;;;18.70;12.80;;;4.60;99.90;;;;;;5031157;28;20192;-74
2022/04/09 06:44:25;;;;;;;21.20;12.47;;;4.40;99.90;;;;;;5030986;28;20409;-72
2022/04/09 06:46:51;;;;;;;22.97;12.60;;;4.50;99.90;;;;;;5030287;28;20264;-74
2022/04/09 06:49:16;;;;;;;21.43;12.93;;;4.60;99.90;;;;;;5030516;28;20535;-74
2022/04/09 06:51:44;;;;;;;19.97;13.13;;;4.80;99.90;;;;;;5031598;28;20859;-73
2022/04/09 06:54:10;;;;;;;20.53;12.30;;;4.80;99.90;;;;;;5031587;28;20162;-75
2022/04/09 06:56:37;;;;;;;21.60;12.83;;;5.00;99.90;;;;;;5038686;28;20791;-74
2022/04/09 06:59:05;;;;;;;19.50;12.37;;;5.10;99.90;;;;;;5029840;28;20181;-73
2022/04/09 07:01:31;;;;;;;17.97;12.20;;;5.10;99.90;;;;;;5029651;28;20984;-74
2022/04/09 07:03:57;;;;;;;18.80;12.27;;;5.60;99.90;;;;;;5027067;28;20456;-73
2022/04/09 07:06:23;;;;;;;16.40;10.60;;;5.70;99.90;;;;;;5029747;28;20225;-73
2022/04/09 07:08:48;;;;;;;17.97;11.50;;;5.60;99.90;;;;;;5030374;28;20204;-73
2022/04/09 07:11:14;;;;;;;16.80;11.20;;;5.50;99.90;;;;;;5029678;28;20182;-73
2022/04/09 07:13:40;;;;;;;19.83;11.50;;;5.50;99.90;;;;;;5013183;28;20591;-73
2022/04/09 07:16:05;;;;;;;19.10;12.80;;;5.60;99.90;;;;;;5029870;28;20472;-73
2022/04/09 07:18:32;;;;;;;18.27;11.50;;;5.70;99.90;;;;;;5030646;28;20212;-73
2022/04/09 07:20:57;;;;;;;18.20;11.50;;;5.80;99.90;;;;;;5030390;28;20170;-72
2022/04/09 07:23:23;;;;;;;21.40;11.60;;;5.90;99.90;;;;;;5030231;28;20960;-74
2022/04/09 07:25:49;;;;;;;20.97;9.93;;;5.90;99.90;;;;;;5031577;28;20198;-74
2022/04/09 07:28:14;;;;;;;21.60;11.63;;;5.90;99.90;;;;;;5041826;28;20177;-73
2022/04/09 07:30:42;;;;;;;15.40;10.00;;;5.80;99.90;;;;;;5049921;28;20204;-73
2022/04/09 07:33:07;;;;;;;18.87;11.73;;;5.70;99.90;;;;;;5031554;28;20332;-73
2022/04/09 07:35:35;;;;;;;17.23;10.83;;;5.70;99.90;;;;;;5045449;28;21041;-73
2022/04/09 07:38:00;;;;;;;21.57;11.80;;;5.80;99.90;;;;;;5028937;28;20215;-74
2022/04/09 07:40:27;;;;;;;17.30;10.90;;;5.80;99.90;;;;;;5030557;28;20500;-73
2022/04/09 07:42:54;;;;;;;17.13;9.97;;;6.20;99.90;;;;;;5011072;28;20177;-73
2022/04/09 07:45:20;;;;;;;21.10;10.93;;;7.00;99.90;;;;;;5029599;28;20443;-74
2022/04/09 07:47:51;;;;;;;13.63;9.63;;;7.80;99.90;;;;;;5030110;28;20423;-74
2022/04/09 07:50:17;;;;;;;13.20;9.97;;;8.30;99.90;;;;;;5028593;28;20600;-73
2022/04/09 07:52:43;;;;;;;18.27;10.00;;;9.00;99.90;;;;;;5030601;28;20423;-74
2022/04/09 07:55:11;;;;;;;15.10;9.67;;;9.50;99.90;;;;;;5011714;28;20276;-74
2022/04/09 07:57:37;;;;;;;13.70;10.47;;;9.60;99.90;;;;;;5016868;28;20265;-73
2022/04/09 08:00:03;;;;;;;14.10;9.77;;;9.50;99.90;;;;;;5049839;28;20427;-74
2022/04/09 08:02:29;;;;;;;12.80;9.60;;;9.60;99.90;;;;;;5048931;28;20412;-74
2022/04/09 08:04:54;;;;;;;11.10;9.00;;;9.70;99.90;;;;;;5049627;28;20438;-73
2022/04/09 08:07:20;;;;;;;17.17;9.17;;;10.10;99.90;;;;;;5031441;28;20667;-74
2022/04/09 08:09:45;;;;;;;12.47;8.23;;;11.00;99.90;;;;;;5029687;28;20416;-74
2022/04/09 08:12:12;;;;;;;12.50;8.27;;;11.60;99.90;;;;;;5029314;28;20516;-74
2022/04/09 08:14:41;;;;;;;13.53;8.80;;;12.60;99.90;;;;;;5029560;28;20684;-74
2022/04/09 08:17:08;;;;;;;12.20;8.90;;;12.80;99.90;;;;;;5028857;28;20425;-74
2022/04/09 08:19:34;;;;;;;11.17;8.30;;;13.70;99.90;;;;;;5029725;28;20420;-74
2022/04/09 08:22:01;;;;;;;14.53;8.70;;;14.60;99.90;;;;;;5020899;28;20899;-74
2022/04/09 08:24:26;;;;;;;11.50;8.70;;;14.90;99.90;;;;;;5029432;28;20404;-74
2022/04/09 08:26:52;;;;;;;15.07;9.20;;;14.50;99.90;;;;;;5036976;28;20918;-74
2022/04/09 08:29:20;;;;;;;15.37;7.87;;;14.10;99.90;;;;;;5042732;28;20200;-74
2022/04/09 08:31:47;;;;;;;12.70;8.00;;;14.00;99.90;;;;;;5040722;28;20419;-74
2022/04/09 08:34:14;;;;;;;10.00;7.90;;;14.30;99.90;;;;;;5028638;28;20408;-74
2022/04/09 08:36:40;;;;;;;12.43;8.40;;;15.00;99.90;;;;;;5029321;28;20923;-74
2022/04/09 08:39:06;;;;;;;13.30;8.97;;;15.80;99.90;;;;;;5029467;28;20531;-73
2022/04/09 08:41:31;;;;;;;10.10;7.87;;;16.60;99.90;;;;;;5027220;28;20181;-74
2022/04/09 08:43:57;;;;;;;16.47;8.90;;;17.00;99.90;;;;;;5028302;28;20178;-74
2022/04/09 08:46:25;;;;;;;14.23;9.00;;;17.00;99.90;;;;;;5028333;28;20583;-74
2022/04/09 08:48:51;;;;;;;10.80;8.10;;;16.60;99.90;;;;;;5026129;28;20201;-74
2022/04/09 08:51:17;;;;;;;14.43;8.47;;;16.40;99.90;;;;;;5028538;28;20778;-74
2022/04/09 08:53:45;;;;;;;12.03;8.87;;;17.00;99.90;;;;;;5028821;28;20541;-74
2022/04/09 08:56:12;;;;;;;11.80;7.50;;;16.90;99.90;;;;;;5033096;28;20449;-74
2022/04/09 08:58:38;;;;;;;17.67;9.17;;;17.30;99.90;;;;;;5039210;28;20411;-74
2022/04/09 09:01:03;;;;;;;17.07;8.60;;;17.70;99.90;;;;;;5027627;28;20772;-73
2022/04/09 09:03:29;;;;;;;10.60;7.90;;;17.40;99.90;;;;;;5028282;28;20174;-74
2022/04/09 09:05:54;;;;;;;12.53;6.67;;;17.30;99.90;;;;;;5028219;28;20208;-73
2022/04/09 09:08:36;;;;;;;12.33;7.77;;;17.30;99.90;;;;;;5023960;28;20648;-74
2022/04/09 09:11:02;;;;;;;10.77;6.10;;;17.60;99.90;;;;;;5026351;28;20170;-74
2022/04/09 09:13:28;;;;;;;10.83;6.70;;;18.10;99.90;;;;;;5009961;28;20439;-74
2022/04/09 09:15:55;;;;;;;11.83;5.60;;;18.30;99.90;;;;;;5026846;28;20198;-74
2022/04/09 09:18:25;;;;;;;8.77;5.63;;;18.60;99.90;;;;;;5025935;28;20166;-75
2022/04/09 09:20:53;;;;;;;9.20;5.33;;;18.80;99.90;;;;;;5028056;28;20508;-75
2022/04/09 09:23:20;;;;;;;7.20;5.00;;;19.10;98.60;;;;;;5028359;28;20412;-75
2022/04/09 09:25:51;;;;;;;7.70;4.60;;;19.10;95.70;;;;;;5021758;28;20444;-73
2022/04/09 09:28:24;;;;;;;9.90;4.53;;;19.50;94.50;;;;;;5016718;28;21030;-74
2022/04/09 09:30:50;;;;;;;8.70;4.60;;;20.20;95.70;;;;;;5009716;28;20509;-74
2022/04/09 09:33:16;;;;;;;7.40;4.53;;;20.40;92.00;;;;;;5009509;28;20518;-75
2022/04/09 09:35:52;;;;;;;7.80;4.43;;;20.70;91.50;;;;;;5028495;28;20205;-73
2022/04/09 09:38:19;;;;;;;11.23;4.10;;;21.20;87.00;;;;;;5027210;28;20169;-73
2022/04/09 09:40:45;;;;;;;10.50;5.00;;;21.10;82.20;;;;;;5028032;28;20790;-74
2022/04/09 09:43:18;;;;;;;13.50;4.50;;;21.30;88.50;;;;;;5027314;28;20427;-75
2022/04/09 09:45:44;;;;;;;12.53;4.77;;;21.70;79.00;;;;;;5009885;28;20205;-74
2022/04/09 09:48:23;;;;;;;14.10;4.10;;;21.30;80.20;;;;;;5027615;28;20468;-74
2022/04/09 09:50:51;;;;;;;8.90;4.27;;;21.50;79.50;;;;;;5027421;28;20419;-74
2022/04/09 09:53:32;;;;;;;8.30;4.27;;;21.50;80.40;;;;;;5028078;28;20424;-75
2022/04/09 09:56:03;;;;;;;7.97;3.90;;;22.20;78.00;;;;;;5023658;28;20528;-74
2022/04/09 09:58:29;;;;;;;9.97;3.93;;;22.40;74.30;;;;;;5014320;28;20426;-75
2022/04/09 10:00:56;;;;;;;7.27;3.80;;;22.20;71.90;;;;;;5009186;28;20845;-75
2022/04/09 10:03:23;;;;;;;10.13;3.97;;;22.80;69.50;;;;;;5025477;28;20409;-75
2022/04/09 10:05:50;;;;;;;10.37;4.53;;;23.20;62.90;;;;;;5009666;28;20483;-75
2022/04/09 10:08:17;;;;;;;9.70;3.63;;;22.00;71.30;;;;;;5028260;28;20762;-74
2022/04/09 10:10:48;;;;;;;7.23;4.00;;;20.80;77.70;;;;;;5009518;28;20412;-75
2022/04/09 10:13:20;;;;;;;9.70;3.80;;;20.40;78.00;;;;;;5029175;28;21008;-77
2022/04/09 10:15:50;;;;;;;9.03;4.60;;;19.60;79.60;;;;;;5011632;28;20487;-74
2022/04/09 10:18:22;;;;;;;8.73;4.00;;;18.90;85.70;;;;;;5008540;28;20413;-74
2022/04/09 10:20:55;;;;;;;13.00;4.93;;;19.80;81.10;;;;;;5021554;28;20942;-75
2022/04/09 10:23:22;;;;;;;9.90;4.27;;;20.90;78.50;;;;;;5032113;28;20409;-74
2022/04/09 10:25:51;;;;;;;9.60;3.83;;;20.40;77.30;;;;;;5031552;28;20891;-74
2022/04/09 10:28:32;;;;;;;9.50;3.73;;;18.60;78.30;;;;;;5015215;28;20806;-73
2022/04/09 10:30:58;;;;;;;9.33;4.10;;;17.50;93.40;;;;;;5030350;28;20518;-75
2022/04/09 10:33:28;;;;;;;7.20;3.60;;;19.70;83.90;;;;;;5029999;28;20424;-74
2022/04/09 10:35:55;;;;;;;6.87;3.70;;;21.40;73.70;;;;;;5030665;28;20463;-74
2022/04/09 10:38:23;;;;;;;6.73;3.23;;;21.00;72.30;;;;;;5030086;28;20420;-76
2022/04/09 10:40:57;;;;;;;9.23;3.70;;;20.10;72.00;;;;;;5030465;28;20490;-74
2022/04/09 10:43:26;;;;;;;9.87;3.80;;;19.00;83.70;;;;;;5032028;28;20435;-75
2022/04/09 10:46:00;;;;;;;10.80;3.60;;;19.00;81.10;;;;;;5031018;28;20432;-75
2022/04/09 10:48:30;;;;;;;12.50;3.90;;;19.00;80.00;;;;;;5031138;28;20491;-74
2022/04/09 10:51:04;;;;;;;11.93;3.70;;;19.60;72.10;;;;;;5013349;28;20420;-75
2022/04/09 10:53:42;;;;;;;8.27;3.23;;;19.50;75.70;;;;;;5013082;28;20789;-75
2022/04/09 10:56:27;;;;;;;7.50;3.13;;;21.20;69.40;;;;;;5031402;28;20443;-73
2022/04/09 10:59:16;;;;;;;8.40;3.40;;;22.40;58.00;;;;;;5024538;28;20509;-74
2022/04/09 11:01:51;;;;;;;8.27;3.90;;;22.00;56.50;;;;;;5015100;28;20977;-75
2022/04/09 11:04:29;;;;;;;5.43;3.00;;;21.40;51.70;;;;;;5012354;28;20472;-75
2022/04/09 11:07:01;;;;;;;8.03;3.30;;;20.30;63.40;;;;;;5029503;28;20419;-74
2022/04/09 11:09:51;;;;;;;10.20;3.60;;;20.60;63.60;;;;;;5030868;28;20459;-75
2022/04/09 11:12:20;;;;;;;11.77;3.63;;;20.60;63.60;;;;;;5030331;28;20416;-75
2022/04/09 11:14:48;;;;;;;9.97;3.20;;;20.70;62.10;;;;;;5030721;28;20613;-74
2022/04/09 11:17:15;;;;;;;5.83;3.00;;;23.20;55.50;;;;;;5025927;28;20462;-74
2022/04/09 11:19:42;;;;;;;7.33;3.20;;;25.40;51.00;;;;;;5029578;28;20420;-74
2022/04/09 11:22:09;;;;;;;6.30;3.50;;;25.80;51.10;;;;;;5024737;28;20432;-75
2022/04/09 11:24:41;;;;;;;6.33;3.23;;;24.70;50.30;;;;;;5029056;28;20832;-74
2022/04/09 11:27:06;;;;;;;8.23;3.07;;;23.50;49.40;;;;;;5028828;28;20423;-73
2022/04/09 11:29:36;;;;;;;6.10;3.27;;;21.80;47.90;;;;;;5031270;28;20551;-74
2022/04/09 11:32:03;;;;;;;8.33;3.30;;;21.80;47.90;;;;;;5029223;28;20500;-74
2022/04/09 11:34:49;;;;;;;12.53;3.27;;;21.20;48.30;;;;;;5030027;28;20805;-75
2022/04/09 11:37:15;;;;;;;12.47;3.70;;;19.30;55.40;;;;;;5029748;28;20458;-74
2022/04/09 11:39:45;;;;;;;8.13;3.63;;;17.70;61.40;;;;;;5030270;28;20416;-74
2022/04/09 11:42:11;;;;;;;8.57;3.30;;;18.70;58.60;;;;;;5029683;28;20220;-74
2022/04/09 11:44:40;;;;;;;6.40;3.07;;;19.10;59.30;;;;;;5014237;28;20441;-74
2022/04/09 11:47:16;;;;;;;6.40;2.83;;;18.80;55.40;;;;;;5029839;28;20212;-74
2022/04/09 11:49:43;;;;;;;12.60;3.27;;;20.20;52.60;;;;;;5030539;28;20466;-74
2022/04/09 11:52:09;;;;;;;8.77;3.20;;;21.00;53.20;;;;;;5019240;28;20915;-74
2022/04/09 11:54:36;;;;;;;8.40;3.27;;;19.70;54.20;;;;;;5034503;28;20591;-72
2022/04/09 11:57:03;;;;;;;8.33;3.47;;;20.80;58.50;;;;;;5029274;28;20424;-74
2022/04/09 11:59:29;;;;;;;8.77;4.00;;;22.30;48.30;;;;;;5036271;28;20937;-74
2022/04/09 12:01:56;;;;;;;10.17;3.47;;;24.10;49.80;;;;;;5028943;28;20423;-74
2022/04/09 12:04:23;;;;;;;7.87;3.50;;;24.20;49.90;;;;;;5029297;28;20428;-74
2022/04/09 12:06:50;;;;;;;5.73;2.80;;;24.60;46.80;;;;;;5020397;28;20783;-74
2022/04/09 12:09:16;;;;;;;9.77;3.20;;;24.80;43.10;;;;;;5030125;28;20513;-74
2022/04/09 12:11:52;;;;;;;6.83;3.10;;;25.90;41.00;;;;;;5029262;28;20416;-74
2022/04/09 12:14:20;;;;;;;5.80;3.00;;;25.90;36.80;;;;;;5021240;28;20216;-75
2022/04/09 12:16:49;;;;;;;8.37;3.10;;;25.10;32.50;;;;;;5029657;28;20981;-75
2022/04/09 12:19:14;;;;;;;7.60;2.90;;;25.40;37.60;;;;;;5009971;28;20423;-75
2022/04/09 12:21:41;;;;;;;9.93;3.27;;;23.60;40.70;;;;;;5004897;28;20424;-75
2022/04/09 12:24:11;;;;;;;8.60;2.80;;;21.20;47.40;;;;;;5029782;28;20260;-75
2022/04/09 12:26:42;;;;;;;6.73;3.40;;;19.40;45.90;;;;;;5022953;28;20441;-75
2022/04/09 12:29:22;;;;;;;6.83;3.90;;;18.10;51.40;;;;;;5018659;28;20506;-73
2022/04/09 12:31:51;;;;;;;10.80;3.80;;;20.30;46.80;;;;;;5029717;28;20438;-74
2022/04/09 12:34:17;;;;;;;7.73;3.60;;;22.00;48.00;;;;;;5010632;28;20914;-74
2022/04/09 12:37:13;;;;;;;8.57;4.07;;;22.20;48.20;;;;;;5027068;28;20487;-74
2022/04/09 12:39:40;;;;;;;7.63;3.60;;;21.40;47.50;;;;;;5011318;28;20762;-74
2022/04/09 12:42:05;;;;;;;7.53;3.30;;;19.90;46.30;;;;;;5026935;28;20838;-73
2022/04/09 12:44:35;;;;;;;9.37;5.13;;;18.00;46.70;;;;;;5028055;28;20428;-73
2022/04/09 12:47:02;;;;;;;5.03;2.63;;;18.70;45.30;;;;;;5028018;28;20189;-74